createdAt,value
2019-03-12T00:00:23.896Z,59.76
2019-03-12T00:02:53.264Z,60.04
2019-03-12T00:05:22.613Z,59.50
2019-03-12T00:07:52.033Z,59.90
2019-03-12T00:10:21.455Z,59.48
2019-03-12T00:12:50.825Z,59.29
2019-03-12T00:15:20.274Z,59.35
2019-03-12T00:17:49.735Z,59.69
2019-03-12T00:20:19.169Z,59.33
2019-03-12T00:22:48.539Z,59.15
2019-03-12T00:25:17.949Z,59.30
2019-03-12T00:27:47.401Z,59.24
2019-03-12T00:30:16.763Z,59.46
2019-03-12T00:32:46.203Z,59.07
2019-03-12T00:35:15.564Z,58.95
2019-03-12T00:37:44.910Z,59.16
2019-03-12T00:40:14.426Z,59.41
2019-03-12T00:42:43.781Z,59.40
2019-03-12T00:45:13.417Z,59.55
2019-03-12T00:47:42.851Z,59.77
2019-03-12T00:50:12.598Z,59.71
2019-03-12T00:52:41.957Z,59.48
2019-03-12T00:55:12.075Z,59.38
2019-03-12T00:57:41.432Z,59.25
2019-03-12T01:00:13.756Z,59.66
2019-03-12T01:02:43.171Z,59.39
2019-03-12T01:05:12.590Z,59.27
2019-03-12T01:07:42.005Z,59.20
2019-03-12T01:10:14.164Z,58.90
2019-03-12T01:12:43.557Z,58.90
2019-03-12T01:15:14.677Z,58.51
2019-03-12T01:17:44.083Z,58.62
2019-03-12T01:20:16.478Z,58.27
2019-03-12T01:22:45.833Z,58.46
2019-03-12T01:25:15.190Z,58.01
2019-03-12T01:27:44.552Z,57.84
2019-03-12T01:30:18.178Z,57.80
2019-03-12T01:32:47.524Z,57.59
2019-03-12T01:35:16.584Z,57.49
2019-03-12T01:37:45.935Z,57.49
2019-03-12T01:40:15.555Z,57.24
2019-03-12T01:42:44.915Z,57.44
2019-03-12T01:45:14.929Z,57.05
2019-03-12T01:47:44.353Z,56.90
2019-03-12T01:50:15.170Z,56.93
2019-03-12T01:52:44.528Z,56.96
2019-03-12T01:55:15.093Z,56.47
2019-03-12T01:57:44.489Z,56.71
2019-03-12T02:00:20.905Z,56.44
2019-03-12T02:02:50.310Z,56.07
2019-03-12T02:05:19.684Z,55.84
2019-03-12T02:07:49.016Z,55.86
2019-03-12T02:10:18.442Z,55.53
2019-03-12T02:12:47.820Z,55.58
2019-03-12T02:15:17.775Z,55.60
2019-03-12T02:17:47.211Z,55.75
2019-03-12T02:20:17.919Z,55.85
2019-03-12T02:22:47.336Z,55.72
2019-03-12T02:25:20.002Z,55.69
2019-03-12T02:27:49.442Z,55.80
2019-03-12T02:30:20.319Z,55.63
2019-03-12T02:32:49.847Z,55.51
2019-03-12T02:35:19.190Z,55.62
2019-03-12T02:37:48.521Z,55.61
2019-03-12T02:40:17.894Z,55.13
2019-03-12T02:42:47.230Z,55.13
2019-03-12T02:45:17.101Z,55.05
2019-03-12T02:47:46.489Z,55.00
2019-03-12T02:50:16.373Z,54.83
2019-03-12T02:52:45.833Z,54.72
2019-03-12T02:55:15.370Z,54.67
2019-03-12T02:57:44.727Z,54.67
2019-03-12T03:00:23.330Z,54.22
2019-03-12T03:02:52.746Z,54.34
2019-03-12T03:05:22.232Z,53.87
2019-03-12T03:07:56.128Z,53.76
2019-03-12T03:10:25.735Z,53.63
2019-03-12T03:12:55.433Z,53.41
2019-03-12T03:15:31.473Z,53.59
2019-03-12T03:18:00.939Z,53.87
2019-03-12T03:20:30.315Z,53.64
2019-03-12T03:22:59.739Z,53.75
2019-03-12T03:25:29.207Z,53.80
2019-03-12T03:27:58.619Z,53.56
2019-03-12T03:30:28.047Z,53.01
2019-03-12T03:32:57.568Z,53.24
2019-03-12T03:35:27.052Z,52.98
2019-03-12T03:37:56.497Z,52.88
2019-03-12T03:40:25.975Z,53.20
2019-03-12T03:42:55.380Z,53.40
2019-03-12T03:45:24.786Z,53.01
2019-03-12T03:47:54.197Z,53.06
2019-03-12T03:50:23.601Z,53.43
2019-03-12T03:52:53.066Z,53.76
2019-03-12T03:55:23.889Z,53.74
2019-03-12T03:57:53.365Z,53.42
2019-03-12T04:00:25.842Z,53.32
2019-03-12T04:02:55.409Z,53.58
2019-03-12T04:05:24.830Z,53.90
2019-03-12T04:07:54.163Z,54.20
2019-03-12T04:10:26.080Z,54.18
2019-03-12T04:12:55.563Z,54.18
2019-03-12T04:15:24.978Z,54.11
2019-03-12T04:17:54.451Z,53.57
2019-03-12T04:20:24.093Z,53.40
2019-03-12T04:22:53.622Z,53.16
2019-03-12T04:25:22.993Z,53.18
2019-03-12T04:27:52.382Z,52.98
2019-03-12T04:30:21.798Z,53.31
2019-03-12T04:32:51.188Z,53.04
2019-03-12T04:35:35.451Z,52.85
2019-03-12T04:38:07.035Z,52.52
2019-03-12T04:40:35.944Z,53.13
2019-03-12T04:43:05.505Z,52.99
2019-03-12T04:45:34.856Z,53.09
2019-03-12T04:48:04.195Z,53.82
2019-03-12T04:50:33.774Z,54.52
2019-03-12T04:53:03.415Z,54.77
2019-03-12T04:55:32.939Z,55.04
2019-03-12T04:58:02.345Z,55.31
2019-03-12T05:00:32.036Z,55.46
2019-03-12T05:03:01.547Z,55.28
2019-03-12T05:05:31.037Z,55.57
2019-03-12T05:08:00.762Z,55.24
2019-03-12T05:10:30.617Z,55.31
2019-03-12T05:13:00.591Z,54.92
2019-03-12T05:15:30.192Z,55.00
2019-03-12T05:17:59.765Z,54.64
2019-03-12T05:20:29.244Z,54.53
2019-03-12T05:22:59.303Z,54.47
2019-03-12T05:25:28.739Z,54.26
2019-03-12T05:27:58.154Z,54.15
2019-03-12T05:30:27.825Z,54.07
2019-03-12T05:32:57.341Z,54.20
2019-03-12T05:35:26.777Z,54.31
2019-03-12T05:37:56.146Z,54.55
2019-03-12T05:40:25.801Z,54.11
2019-03-12T05:42:55.469Z,54.23
2019-03-12T05:45:24.932Z,54.51
2019-03-12T05:47:54.434Z,54.52
2019-03-12T05:50:23.886Z,54.52
2019-03-12T05:53:04.723Z,54.46
2019-03-12T05:55:34.155Z,54.38
2019-03-12T05:58:03.593Z,54.19
2019-03-12T06:00:33.248Z,54.51
2019-03-12T06:03:02.691Z,54.84
2019-03-12T06:05:32.048Z,54.95
2019-03-12T06:08:01.526Z,54.54
2019-03-12T06:10:30.961Z,54.46
2019-03-12T06:13:00.914Z,54.88
2019-03-12T06:15:30.360Z,54.77
2019-03-12T06:17:59.958Z,54.95
2019-03-12T06:20:29.383Z,54.62
2019-03-12T06:22:58.736Z,54.71
2019-03-12T06:25:28.109Z,55.36
2019-03-12T06:27:58.793Z,55.42
2019-03-12T06:30:30.017Z,56.04
2019-03-12T06:33:09.954Z,56.39
2019-03-12T06:35:43.702Z,56.95
2019-03-12T06:38:14.942Z,57.50
2019-03-12T06:40:51.973Z,59.05
2019-03-12T06:43:31.976Z,59.92
2019-03-12T06:46:05.596Z,60.33
2019-03-12T06:48:48.691Z,61.07
2019-03-12T06:51:25.753Z,61.75
2019-03-12T06:54:02.542Z,62.89
2019-03-12T06:56:36.565Z,63.29
2019-03-12T06:59:25.966Z,64.49
2019-03-12T07:01:56.924Z,64.23
2019-03-12T07:04:46.066Z,64.69
2019-03-12T07:07:33.294Z,65.56
2019-03-12T07:10:04.380Z,65.46
2019-03-12T07:12:45.060Z,65.69
2019-03-12T07:15:27.878Z,65.00
2019-03-12T07:17:59.027Z,63.67
2019-03-12T07:20:35.766Z,64.15
2019-03-12T07:23:10.710Z,64.46
2019-03-12T07:25:56.898Z,65.82
2019-03-12T07:28:50.079Z,65.84
2019-03-12T07:31:15.467Z,66.93
2019-03-12T07:34:01.681Z,67.79
2019-03-12T07:36:47.107Z,66.89
2019-03-12T07:39:34.212Z,65.64
2019-03-12T07:42:11.279Z,65.71
2019-03-12T07:44:42.239Z,65.49
2019-03-12T07:47:35.595Z,64.35
2019-03-12T07:50:22.692Z,64.77
2019-03-12T07:52:53.707Z,63.94
2019-03-12T07:55:40.958Z,63.41
2019-03-12T07:58:14.607Z,63.16
2019-03-12T08:00:45.590Z,61.71
2019-03-12T08:03:19.843Z,62.54
2019-03-12T08:05:56.990Z,61.56
2019-03-12T08:08:39.844Z,60.82
2019-03-12T08:11:11.111Z,59.80
2019-03-12T08:13:43.473Z,59.53
2019-03-12T08:16:14.764Z,59.12
2019-03-12T08:19:01.983Z,59.02
2019-03-12T08:21:50.324Z,59.27
2019-03-12T08:24:30.428Z,58.93
2019-03-12T08:27:07.393Z,56.15
2019-03-12T08:29:46.788Z,56.17
2019-03-12T08:32:35.214Z,55.84
2019-03-12T08:35:07.099Z,56.20
2019-03-12T08:37:44.180Z,54.94
2019-03-12T08:40:24.299Z,54.38
2019-03-12T08:43:14.577Z,54.03
2019-03-12T08:46:01.651Z,53.04
2019-03-12T08:48:32.651Z,52.79
2019-03-12T08:51:05.257Z,51.71
2019-03-12T08:53:45.229Z,52.14
2019-03-12T08:56:22.181Z,51.95
2019-03-12T08:59:02.313Z,52.69
2019-03-12T09:01:39.471Z,52.06
2019-03-12T09:04:26.141Z,50.74
2019-03-12T09:07:05.202Z,50.54
2019-03-12T09:09:38.526Z,50.62
2019-03-12T09:12:12.725Z,49.76
2019-03-12T09:14:59.702Z,49.77
2019-03-12T09:17:45.530Z,49.14
2019-03-12T09:20:17.782Z,48.16
2019-03-12T09:22:48.850Z,48.86
2019-03-12T09:25:36.042Z,48.44
2019-03-12T09:28:10.116Z,48.33
2019-03-12T09:30:44.132Z,47.57
2019-03-12T09:33:15.130Z,47.72
2019-03-12T09:35:49.112Z,48.55
2019-03-12T09:38:29.077Z,47.85
2019-03-12T09:41:18.169Z,47.38
2019-03-12T09:43:52.084Z,48.20
2019-03-12T09:46:23.064Z,47.65
2019-03-12T09:49:06.197Z,47.39
2019-03-12T09:51:46.253Z,48.12
2019-03-12T09:54:33.417Z,47.59
2019-03-12T09:57:08.562Z,47.75
2019-03-12T09:59:48.514Z,47.45
2019-03-12T10:02:37.143Z,47.37
2019-03-12T10:05:15.139Z,46.67
2019-03-12T10:07:55.124Z,47.11
2019-03-12T10:10:42.053Z,46.34
2019-03-12T10:13:29.283Z,46.59
2019-03-12T10:16:16.524Z,46.06
2019-03-12T10:18:48.799Z,45.39
2019-03-12T10:21:22.482Z,45.49
2019-03-12T10:23:59.246Z,44.92
2019-03-12T10:26:30.250Z,44.92
2019-03-12T10:29:04.173Z,44.75
2019-03-12T10:31:38.147Z,44.08
2019-03-12T10:34:28.976Z,44.53
2019-03-12T10:37:11.974Z,44.16
2019-03-12T10:39:55.470Z,44.13
2019-03-12T10:42:27.020Z,44.00
2019-03-12T10:45:14.035Z,44.10
2019-03-12T10:47:45.274Z,44.45
2019-03-12T10:50:14.803Z,44.07
2019-03-12T10:52:44.234Z,44.48
2019-03-12T10:55:14.159Z,44.39
2019-03-12T10:57:44.293Z,44.70
2019-03-12T11:00:18.202Z,44.33
2019-03-12T11:02:47.637Z,43.39
2019-03-12T11:05:18.365Z,44.14
2019-03-12T11:07:47.791Z,44.01
2019-03-12T11:10:19.623Z,43.64
2019-03-12T11:12:49.113Z,44.19
2019-03-12T11:15:18.874Z,43.80
2019-03-12T11:17:49.954Z,42.87
2019-03-12T11:20:26.673Z,43.32
2019-03-12T11:22:56.169Z,44.34
2019-03-12T11:25:28.064Z,43.68
2019-03-12T11:27:57.320Z,46.12
2019-03-12T11:30:31.510Z,45.66
2019-03-12T11:33:01.024Z,45.23
2019-03-12T11:35:38.715Z,45.89
2019-03-12T11:38:02.421Z,46.23
2019-03-12T11:40:32.851Z,46.67
2019-03-12T11:43:02.524Z,48.92
2019-03-12T11:45:36.760Z,49.08
2019-03-12T11:48:03.221Z,48.19
2019-03-12T11:50:32.624Z,47.69
2019-03-12T11:53:02.209Z,48.40
2019-03-12T11:55:31.696Z,47.19
2019-03-12T11:58:01.202Z,46.35
2019-03-12T12:00:32.272Z,50.86
2019-03-12T12:03:01.803Z,50.60
2019-03-12T12:05:31.237Z,50.57
2019-03-12T12:08:00.770Z,51.63
2019-03-12T12:10:34.871Z,52.12
2019-03-12T12:13:04.384Z,52.35
2019-03-12T12:15:33.936Z,52.43
2019-03-12T12:18:03.468Z,54.93
2019-03-12T12:20:32.876Z,55.39
2019-03-12T12:23:02.299Z,55.23
2019-03-12T12:25:31.718Z,56.08
2019-03-12T12:28:01.135Z,59.93
2019-03-12T12:30:30.649Z,62.24
2019-03-12T12:33:00.064Z,64.14
2019-03-12T12:35:29.478Z,64.64
2019-03-12T12:37:58.929Z,67.79
2019-03-12T12:40:28.388Z,69.35
2019-03-12T12:42:57.838Z,69.78
2019-03-12T12:45:31.869Z,70.49
2019-03-12T12:48:01.245Z,70.63
2019-03-12T12:50:30.674Z,71.19
2019-03-12T12:53:00.238Z,70.97
2019-03-12T12:55:29.652Z,71.12
2019-03-12T12:57:59.061Z,70.82
2019-03-12T13:00:31.411Z,70.39
2019-03-12T13:03:00.759Z,71.06
2019-03-12T13:05:30.168Z,72.55
2019-03-12T13:07:59.036Z,71.72
2019-03-12T13:10:33.665Z,72.69
2019-03-12T13:13:02.422Z,72.48
2019-03-12T13:15:31.274Z,71.96
2019-03-12T13:18:00.040Z,70.70
2019-03-12T13:20:28.808Z,71.10
2019-03-12T13:22:57.657Z,69.51
2019-03-12T13:25:26.418Z,69.56
2019-03-12T13:27:55.851Z,68.82
2019-03-12T13:30:25.511Z,68.69
2019-03-12T13:32:54.888Z,69.68
2019-03-12T13:35:23.752Z,68.57
2019-03-12T13:37:52.543Z,68.13
2019-03-12T13:40:26.371Z,68.88
2019-03-12T13:42:55.474Z,69.51
2019-03-12T13:45:29.649Z,68.29
2019-03-12T13:47:58.484Z,68.98
2019-03-12T13:50:27.769Z,69.00
2019-03-12T13:52:56.785Z,68.12
2019-03-12T13:55:25.734Z,68.63
2019-03-12T13:57:54.646Z,67.63
2019-03-12T14:00:27.411Z,68.65
2019-03-12T14:02:56.825Z,68.45
2019-03-12T14:05:25.661Z,68.30
2019-03-12T14:07:54.487Z,68.47
2019-03-12T14:10:24.082Z,69.09
2019-03-12T14:12:56.404Z,69.29
2019-03-12T14:15:30.310Z,69.16
2019-03-12T14:17:59.267Z,68.96
2019-03-12T14:20:39.278Z,69.12
2019-03-12T14:23:08.649Z,70.04
2019-03-12T14:25:37.679Z,70.59
2019-03-12T14:28:06.735Z,69.83
2019-03-12T14:30:36.260Z,70.56
2019-03-12T14:33:05.195Z,71.04
2019-03-12T14:35:34.302Z,70.87
2019-03-12T14:38:03.856Z,70.20
2019-03-12T14:40:32.782Z,70.10
2019-03-12T14:43:01.712Z,69.22
2019-03-12T14:45:31.559Z,69.37
2019-03-12T14:48:00.992Z,69.43
2019-03-12T14:50:31.611Z,68.87
2019-03-12T14:53:21.765Z,68.71
2019-03-12T14:55:43.918Z,67.83
2019-03-12T14:58:13.378Z,68.17
2019-03-12T15:00:42.720Z,68.26
2019-03-12T15:03:12.173Z,67.69
2019-03-12T15:05:41.605Z,67.89
2019-03-12T15:08:12.696Z,68.45
2019-03-12T15:10:42.059Z,68.27
2019-03-12T15:13:11.534Z,67.87
2019-03-12T15:15:40.919Z,68.19
2019-03-12T15:18:10.289Z,68.36
2019-03-12T15:20:39.733Z,69.28
2019-03-12T15:23:09.089Z,69.30
2019-03-12T15:25:37.925Z,69.60
2019-03-12T15:28:07.343Z,69.53
2019-03-12T15:30:36.116Z,69.59
2019-03-12T15:33:05.552Z,69.86
2019-03-12T15:35:34.319Z,70.09
2019-03-12T15:38:03.154Z,70.68
2019-03-12T15:40:32.035Z,70.44
2019-03-12T15:43:00.900Z,70.39
2019-03-12T15:45:29.772Z,70.69
2019-03-12T15:47:58.599Z,70.92
2019-03-12T15:50:27.544Z,71.28
2019-03-12T15:52:56.418Z,70.52
2019-03-12T15:55:25.211Z,70.74
2019-03-12T15:57:54.112Z,71.18
2019-03-12T16:00:24.467Z,70.69
2019-03-12T16:02:54.425Z,71.47
2019-03-12T16:05:24.646Z,72.26
2019-03-12T16:07:54.382Z,72.83
2019-03-12T16:10:23.540Z,72.39
2019-03-12T16:12:52.500Z,72.10
2019-03-12T16:15:22.067Z,72.35
2019-03-12T16:17:51.054Z,72.21
2019-03-12T16:20:21.811Z,72.75
2019-03-12T16:22:50.686Z,72.70
2019-03-12T16:25:19.471Z,72.62
2019-03-12T16:27:48.344Z,72.58
2019-03-12T16:30:18.504Z,72.19
2019-03-12T16:32:47.436Z,71.46
2019-03-12T16:35:16.216Z,71.56
2019-03-12T16:37:45.146Z,71.43
2019-03-12T16:40:17.888Z,72.05
2019-03-12T16:42:46.713Z,71.43
2019-03-12T16:45:17.705Z,71.33
2019-03-12T16:47:46.558Z,71.96
2019-03-12T16:50:16.106Z,71.13
2019-03-12T16:52:44.950Z,70.87
2019-03-12T16:55:20.158Z,71.38
2019-03-12T16:57:48.932Z,71.60
2019-03-12T17:00:22.290Z,72.09
2019-03-12T17:02:51.152Z,72.85
2019-03-12T17:05:20.048Z,73.01
2019-03-12T17:07:49.017Z,73.16
2019-03-12T17:10:20.802Z,73.31
2019-03-12T17:12:49.702Z,73.54
2019-03-12T17:15:26.029Z,73.98
2019-03-12T17:17:54.875Z,73.27
2019-03-12T17:20:25.225Z,73.33
2019-03-12T17:22:54.060Z,73.27
2019-03-12T17:25:22.922Z,72.83
2019-03-12T17:27:52.126Z,72.49
2019-03-12T17:30:22.471Z,73.92
2019-03-12T17:32:51.244Z,73.09
2019-03-12T17:35:22.762Z,72.82
2019-03-12T17:37:51.614Z,72.41
2019-03-12T17:40:21.694Z,71.97
2019-03-12T17:42:50.559Z,72.59
2019-03-12T17:45:19.662Z,71.14
2019-03-12T17:47:48.501Z,71.89
2019-03-12T17:50:17.487Z,71.78
2019-03-12T17:52:46.429Z,72.11
2019-03-12T17:55:15.611Z,71.64
2019-03-12T17:57:46.409Z,72.00
2019-03-12T18:00:17.828Z,71.52
2019-03-12T18:02:46.720Z,71.58
2019-03-12T18:05:15.548Z,71.25
2019-03-12T18:07:44.514Z,71.17
2019-03-12T18:10:18.264Z,71.42
2019-03-12T18:12:47.112Z,71.47
2019-03-12T18:15:19.177Z,71.71
2019-03-12T18:17:47.935Z,72.16
2019-03-12T18:20:18.756Z,73.27
2019-03-12T18:22:47.618Z,72.60
2019-03-12T18:25:35.547Z,72.47
2019-03-12T18:28:04.649Z,72.85
2019-03-12T18:30:33.593Z,73.61
2019-03-12T18:33:02.466Z,74.05
2019-03-12T18:35:31.310Z,75.11
2019-03-12T18:38:00.214Z,74.56
2019-03-12T18:40:29.851Z,74.03
2019-03-12T18:42:59.011Z,74.49
2019-03-12T18:45:34.605Z,74.39
2019-03-12T18:48:03.561Z,75.04
2019-03-12T18:50:32.743Z,74.56
2019-03-12T18:53:02.734Z,75.87
2019-03-12T18:55:37.802Z,75.48
2019-03-12T18:58:07.131Z,75.87
2019-03-12T19:00:36.805Z,74.81
2019-03-12T19:03:05.774Z,75.04
2019-03-12T19:05:34.747Z,76.05
2019-03-12T19:08:03.727Z,75.81
2019-03-12T19:10:32.625Z,77.14
2019-03-12T19:13:01.883Z,77.12
2019-03-12T19:15:31.001Z,76.49
2019-03-12T19:18:01.280Z,76.61
2019-03-12T19:20:32.925Z,76.80
2019-03-12T19:23:00.918Z,76.62
2019-03-12T19:25:41.082Z,76.59
2019-03-12T19:28:10.093Z,76.79
2019-03-12T19:30:40.964Z,76.65
2019-03-12T19:33:11.454Z,76.59
2019-03-12T19:35:40.493Z,77.33
2019-03-12T19:38:09.635Z,77.10
2019-03-12T19:40:46.197Z,76.93
2019-03-12T19:43:17.173Z,76.68
2019-03-12T19:45:46.413Z,76.36
2019-03-12T19:48:15.473Z,76.41
2019-03-12T19:50:44.531Z,76.70
2019-03-12T19:53:13.665Z,76.46
2019-03-12T19:55:57.903Z,76.25
2019-03-12T19:58:28.470Z,76.37
2019-03-12T20:00:58.689Z,76.49
2019-03-12T20:03:27.568Z,76.88
2019-03-12T20:05:56.478Z,76.78
2019-03-12T20:08:25.458Z,77.27
2019-03-12T20:11:22.354Z,77.23
2019-03-12T20:14:22.691Z,76.76
2019-03-12T20:17:22.716Z,76.71
2019-03-12T20:20:00.604Z,76.58
2019-03-12T20:23:05.220Z,76.50
2019-03-12T20:25:53.513Z,77.49
2019-03-12T20:28:47.750Z,77.53
2019-03-12T20:31:37.205Z,77.99
2019-03-12T20:34:28.419Z,77.52
2019-03-12T20:37:19.201Z,77.58
2019-03-12T20:40:05.799Z,77.55
2019-03-12T20:42:59.977Z,77.81
2019-03-12T20:46:04.582Z,77.42
2019-03-12T20:49:11.250Z,77.71
2019-03-12T20:52:14.304Z,78.16
2019-03-12T20:55:20.785Z,77.64
2019-03-12T20:58:08.881Z,76.81
2019-03-12T21:01:00.063Z,76.77
2019-03-12T21:03:51.034Z,77.61
2019-03-12T21:06:28.527Z,76.83
2019-03-12T21:09:12.012Z,77.02
2019-03-12T21:12:09.196Z,77.16
2019-03-12T21:15:00.114Z,77.93
2019-03-12T21:18:04.988Z,77.75
2019-03-12T21:20:51.404Z,77.74
2019-03-12T21:23:23.167Z,77.64
2019-03-12T21:26:00.427Z,78.27
2019-03-12T21:28:41.017Z,78.24
2019-03-12T21:31:09.858Z,77.83
2019-03-12T21:33:38.739Z,77.78
2019-03-12T21:36:08.398Z,78.37
2019-03-12T21:38:37.383Z,79.17
2019-03-12T21:41:06.158Z,79.77
2019-03-12T21:43:35.018Z,79.44
2019-03-12T21:46:03.804Z,79.60
2019-03-12T21:48:32.620Z,79.88
2019-03-12T21:51:01.473Z,80.47
2019-03-12T21:53:30.309Z,80.39
2019-03-12T21:55:59.119Z,81.05
2019-03-12T21:58:27.971Z,80.53
2019-03-12T22:00:56.824Z,80.62
2019-03-12T22:03:25.680Z,80.12
2019-03-12T22:05:54.455Z,80.67
2019-03-12T22:08:25.253Z,81.21
2019-03-12T22:10:53.833Z,80.70
2019-03-12T22:13:22.688Z,80.49
2019-03-12T22:15:51.534Z,81.43
2019-03-12T22:18:20.388Z,80.95
2019-03-12T22:20:51.315Z,80.79
2019-03-12T22:23:24.439Z,80.40
2019-03-12T22:25:55.836Z,80.29
2019-03-12T22:28:23.942Z,80.06
2019-03-12T22:30:52.789Z,80.14
2019-03-12T22:33:21.655Z,80.29
2019-03-12T22:35:50.544Z,80.67
2019-03-12T22:38:19.386Z,81.24
2019-03-12T22:40:48.220Z,81.24
2019-03-12T22:43:17.054Z,80.67
2019-03-12T22:45:45.910Z,80.49
2019-03-12T22:48:14.770Z,80.22
2019-03-12T22:50:43.600Z,79.68
2019-03-12T22:53:12.445Z,79.80
2019-03-12T22:55:41.284Z,79.97
2019-03-12T22:58:10.121Z,80.01
2019-03-12T23:00:39.967Z,80.31
2019-03-12T23:03:08.849Z,80.19
2019-03-12T23:05:37.719Z,80.03
2019-03-12T23:08:06.568Z,79.95
2019-03-12T23:10:35.431Z,80.05
2019-03-12T23:13:04.281Z,80.08
2019-03-12T23:15:33.121Z,80.78
2019-03-12T23:18:02.081Z,80.44
2019-03-12T23:20:30.948Z,80.10
2019-03-12T23:22:59.821Z,79.86
2019-03-12T23:25:28.659Z,80.21
2019-03-12T23:27:57.515Z,80.04
2019-03-12T23:30:28.645Z,80.26
2019-03-12T23:32:57.266Z,80.63
2019-03-12T23:35:26.139Z,80.62
2019-03-12T23:37:55.022Z,80.87
2019-03-12T23:40:23.992Z,81.09
2019-03-12T23:42:52.874Z,80.99
2019-03-12T23:45:21.724Z,80.99
2019-03-12T23:47:50.852Z,80.48
2019-03-12T23:50:19.912Z,80.66
2019-03-12T23:52:48.687Z,80.96
2019-03-12T23:55:18.633Z,81.03
2019-03-12T23:57:47.500Z,80.55
